createdAt,value
2018-04-23T00:01:19.446Z,35.72
2018-04-23T00:03:46.913Z,35.68
2018-04-23T00:06:14.327Z,36.02
2018-04-23T00:08:41.764Z,35.78
2018-04-23T00:11:09.193Z,35.91
2018-04-23T00:13:36.685Z,35.94
2018-04-23T00:16:04.071Z,36.32
2018-04-23T00:18:32.205Z,35.95
2018-04-23T00:20:59.674Z,36.17
2018-04-23T00:23:27.126Z,36.09
2018-04-23T00:25:54.530Z,36.12
2018-04-23T00:28:22.180Z,36.18
2018-04-23T00:30:49.773Z,36.19
2018-04-23T00:33:17.209Z,36.19
2018-04-23T00:35:44.651Z,36.28
2018-04-23T00:38:12.083Z,36.62
2018-04-23T00:40:39.511Z,36.43
2018-04-23T00:43:06.978Z,36.29
2018-04-23T00:45:34.443Z,36.40
2018-04-23T00:48:01.948Z,36.64
2018-04-23T00:50:29.414Z,36.53
2018-04-23T00:53:08.800Z,36.38
2018-04-23T00:55:36.274Z,36.81
2018-04-23T00:58:03.674Z,36.81
2018-04-23T01:00:31.093Z,37.19
2018-04-23T01:02:58.491Z,37.36
2018-04-23T01:05:25.887Z,37.42
2018-04-23T01:07:53.311Z,37.45
2018-04-23T01:10:20.713Z,37.56
2018-04-23T01:12:49.021Z,37.99
2018-04-23T01:15:16.494Z,37.82
2018-04-23T01:17:43.889Z,37.95
2018-04-23T01:20:11.412Z,38.06
2018-04-23T01:22:39.784Z,38.16
2018-04-23T01:25:07.217Z,38.30
2018-04-23T01:27:34.637Z,38.61
2018-04-23T01:30:02.031Z,38.81
2018-04-23T01:32:29.500Z,38.85
2018-04-23T01:34:56.932Z,38.93
2018-04-23T01:37:24.343Z,38.87
2018-04-23T01:39:52.011Z,38.96
2018-04-23T01:42:19.479Z,38.83
2018-04-23T01:44:46.941Z,38.73
2018-04-23T01:47:14.398Z,38.73
2018-04-23T01:49:41.844Z,38.67
2018-04-23T01:52:09.289Z,38.69
2018-04-23T01:54:37.497Z,38.79
2018-04-23T01:57:04.953Z,38.75
2018-04-23T01:59:33.046Z,38.80
2018-04-23T02:02:00.508Z,38.81
2018-04-23T02:04:27.937Z,39.12
2018-04-23T02:06:55.371Z,38.65
2018-04-23T02:09:22.838Z,38.64
2018-04-23T02:11:50.239Z,38.32
2018-04-23T02:14:17.657Z,37.85
2018-04-23T02:16:45.103Z,37.60
2018-04-23T02:19:12.549Z,37.36
2018-04-23T02:21:39.939Z,37.30
2018-04-23T02:24:07.424Z,37.21
2018-04-23T02:26:35.286Z,37.10
2018-04-23T02:29:02.770Z,37.14
2018-04-23T02:31:30.227Z,37.33
2018-04-23T02:33:57.679Z,37.46
2018-04-23T02:36:25.098Z,37.35
2018-04-23T02:38:52.907Z,37.18
2018-04-23T02:41:20.375Z,37.05
2018-04-23T02:43:47.834Z,37.06
2018-04-23T02:46:15.267Z,37.65
2018-04-23T02:48:43.309Z,37.19
2018-04-23T02:51:11.131Z,37.15
2018-04-23T02:53:38.533Z,37.18
2018-04-23T02:56:06.009Z,37.78
2018-04-23T02:58:33.510Z,37.58
2018-04-23T03:01:00.985Z,37.94
2018-04-23T03:03:28.416Z,38.15
2018-04-23T03:05:55.887Z,37.91
2018-04-23T03:08:23.468Z,38.35
2018-04-23T03:10:50.932Z,38.22
2018-04-23T03:13:18.339Z,38.24
2018-04-23T03:15:45.779Z,38.37
2018-04-23T03:18:13.211Z,38.87
2018-04-23T03:20:40.681Z,38.92
2018-04-23T03:23:08.111Z,38.88
2018-04-23T03:25:35.565Z,38.43
2018-04-23T03:28:03.036Z,38.76
2018-04-23T03:30:30.471Z,38.76
2018-04-23T03:32:57.925Z,38.56
2018-04-23T03:35:25.325Z,38.96
2018-04-23T03:37:52.810Z,39.37
2018-04-23T03:40:20.179Z,39.76
2018-04-23T03:42:47.613Z,40.27
2018-04-23T03:45:15.091Z,40.67
2018-04-23T03:47:42.563Z,40.84
2018-04-23T03:50:09.978Z,40.83
2018-04-23T03:52:37.405Z,40.71
2018-04-23T03:55:04.833Z,40.77
2018-04-23T03:57:32.385Z,40.94
2018-04-23T03:59:59.977Z,41.21
2018-04-23T04:02:27.383Z,41.60
2018-04-23T04:04:54.808Z,42.00
2018-04-23T04:07:22.276Z,42.03
2018-04-23T04:09:49.737Z,42.37
2018-04-23T04:12:29.020Z,42.39
2018-04-23T04:15:08.186Z,42.32
2018-04-23T04:17:36.280Z,42.45
2018-04-23T04:20:03.685Z,42.75
2018-04-23T04:22:31.128Z,43.07
2018-04-23T04:24:58.511Z,43.24
2018-04-23T04:27:25.947Z,43.51
2018-04-23T04:29:53.363Z,43.37
2018-04-23T04:32:20.787Z,43.58
2018-04-23T04:34:48.241Z,43.45
2018-04-23T04:37:15.700Z,43.44
2018-04-23T04:39:43.132Z,43.51
2018-04-23T04:42:10.588Z,44.25
2018-04-23T04:44:38.150Z,44.83
2018-04-23T04:47:05.621Z,44.92
2018-04-23T04:49:33.079Z,45.37
2018-04-23T04:52:00.564Z,45.89
2018-04-23T04:54:28.020Z,46.08
2018-04-23T04:56:55.449Z,46.00
2018-04-23T04:59:22.987Z,45.80
2018-04-23T05:01:50.459Z,45.71
2018-04-23T05:04:18.002Z,45.58
2018-04-23T05:06:45.479Z,45.76
2018-04-23T05:09:12.900Z,45.81
2018-04-23T05:11:40.290Z,45.91
2018-04-23T05:14:07.740Z,45.74
2018-04-23T05:16:35.290Z,45.83
2018-04-23T05:19:02.717Z,45.95
2018-04-23T05:21:30.155Z,45.92
2018-04-23T05:23:57.582Z,45.64
2018-04-23T05:26:25.019Z,45.66
2018-04-23T05:28:52.476Z,45.72
2018-04-23T05:31:19.903Z,46.15
2018-04-23T05:33:47.340Z,46.22
2018-04-23T05:36:14.738Z,45.62
2018-04-23T05:38:42.170Z,45.40
2018-04-23T05:41:09.600Z,45.32
2018-04-23T05:43:37.200Z,44.75
2018-04-23T05:46:04.665Z,44.75
2018-04-23T05:48:32.447Z,45.42
2018-04-23T05:50:59.874Z,44.67
2018-04-23T05:53:27.326Z,43.67
2018-04-23T05:55:54.813Z,44.14
2018-04-23T05:58:22.267Z,44.70
2018-04-23T06:00:49.670Z,44.90
2018-04-23T06:03:17.079Z,44.89
2018-04-23T06:05:44.524Z,44.82
2018-04-23T06:08:12.138Z,44.54
2018-04-23T06:10:39.967Z,43.63
2018-04-23T06:13:07.455Z,42.60
2018-04-23T06:15:34.883Z,41.61
2018-04-23T06:18:02.296Z,40.59
2018-04-23T06:20:29.859Z,40.14
2018-04-23T06:22:57.324Z,39.60
2018-04-23T06:25:24.751Z,39.37
2018-04-23T06:27:52.307Z,38.86
2018-04-23T06:30:19.739Z,38.71
2018-04-23T06:32:47.239Z,38.35
2018-04-23T06:35:14.697Z,37.51
2018-04-23T06:37:42.195Z,36.56
2018-04-23T06:40:09.642Z,36.08
2018-04-23T06:42:37.111Z,35.69
2018-04-23T06:45:04.590Z,35.04
2018-04-23T06:47:33.235Z,34.21
2018-04-23T06:50:00.691Z,33.62
2018-04-23T06:52:28.124Z,33.66
2018-04-23T06:54:56.348Z,33.04
2018-04-23T06:57:23.815Z,32.39
2018-04-23T06:59:51.276Z,31.59
2018-04-23T07:02:18.823Z,31.66
2018-04-23T07:04:46.241Z,33.04
2018-04-23T07:07:13.628Z,33.21
2018-04-23T07:09:41.099Z,32.99
2018-04-23T07:12:08.636Z,33.10
2018-04-23T07:14:36.099Z,32.05
2018-04-23T07:17:03.537Z,32.51
2018-04-23T07:19:31.148Z,33.20
2018-04-23T07:21:58.568Z,32.96
2018-04-23T07:24:26.141Z,33.40
2018-04-23T07:26:53.671Z,33.62
2018-04-23T07:29:21.185Z,33.92
2018-04-23T07:31:48.603Z,34.08
2018-04-23T07:34:16.071Z,34.61
2018-04-23T07:36:43.475Z,34.92
2018-04-23T07:39:11.240Z,35.11
2018-04-23T07:41:38.659Z,35.62
2018-04-23T07:44:06.237Z,36.13
2018-04-23T07:46:33.673Z,35.89
2018-04-23T07:49:01.109Z,34.89
2018-04-23T07:51:28.590Z,34.59
2018-04-23T07:53:56.249Z,33.67
2018-04-23T07:56:23.718Z,32.34
2018-04-23T07:58:51.187Z,31.72
2018-04-23T08:01:18.670Z,30.66
2018-04-23T08:03:46.095Z,30.34
2018-04-23T08:06:13.531Z,29.69
2018-04-23T08:08:40.986Z,30.33
2018-04-23T08:11:08.467Z,29.82
2018-04-23T08:13:35.895Z,29.30
2018-04-23T08:16:03.316Z,30.35
2018-04-23T08:18:30.832Z,30.26
2018-04-23T08:20:58.280Z,29.67
2018-04-23T08:23:25.750Z,29.24
2018-04-23T08:25:53.195Z,28.73
2018-04-23T08:28:20.644Z,27.73
2018-04-23T08:30:48.070Z,27.51
2018-04-23T08:33:15.541Z,27.14
2018-04-23T08:35:42.998Z,26.77
2018-04-23T08:38:10.507Z,26.38
2018-04-23T08:40:37.933Z,28.14
2018-04-23T08:43:05.356Z,28.64
2018-04-23T08:45:32.839Z,28.80
2018-04-23T08:48:00.305Z,28.13
2018-04-23T08:50:28.758Z,26.86
2018-04-23T08:52:56.884Z,26.35
2018-04-23T08:55:24.337Z,26.61
2018-04-23T08:57:51.830Z,27.14
2018-04-23T09:00:19.972Z,27.57
2018-04-23T09:02:47.370Z,27.56
2018-04-23T09:05:14.809Z,27.31
2018-04-23T09:07:42.232Z,26.70
2018-04-23T09:10:09.637Z,26.10
2018-04-23T09:12:37.077Z,25.63
2018-04-23T09:15:04.595Z,25.31
2018-04-23T09:17:32.673Z,25.10
2018-04-23T09:20:00.110Z,25.33
2018-04-23T09:22:27.585Z,25.52
2018-04-23T09:24:55.089Z,25.17
2018-04-23T09:27:22.495Z,24.78
2018-04-23T09:29:49.922Z,24.53
2018-04-23T09:32:17.355Z,24.05
2018-04-23T09:34:44.813Z,23.34
2018-04-23T09:37:12.253Z,22.90
2018-04-23T09:39:39.705Z,22.99
2018-04-23T09:42:07.223Z,22.95
2018-04-23T09:44:34.732Z,23.01
2018-04-23T09:47:02.092Z,23.29
2018-04-23T09:49:29.527Z,24.02
2018-04-23T09:51:56.964Z,24.35
2018-04-23T09:54:24.414Z,24.80
2018-04-23T09:56:51.886Z,24.97
2018-04-23T09:59:19.314Z,25.33
2018-04-23T10:01:50.600Z,25.65
2018-04-23T10:04:20.940Z,25.83
2018-04-23T10:06:48.372Z,26.11
2018-04-23T10:09:15.839Z,26.36
2018-04-23T10:11:44.008Z,26.44
2018-04-23T10:14:11.426Z,26.41
2018-04-23T10:16:39.015Z,27.02
2018-04-23T10:19:06.414Z,27.64
2018-04-23T10:21:33.910Z,26.69
2018-04-23T10:24:02.324Z,26.18
2018-04-23T10:26:29.833Z,25.93
2018-04-23T10:28:57.374Z,25.77
2018-04-23T10:31:24.900Z,25.03
2018-04-23T10:33:52.455Z,24.21
2018-04-23T10:36:19.966Z,23.73
2018-04-23T10:38:47.366Z,23.66
2018-04-23T10:41:14.805Z,23.78
2018-04-23T10:43:42.323Z,24.04
2018-04-23T10:46:09.797Z,23.93
2018-04-23T10:48:37.297Z,24.45
2018-04-23T10:51:04.772Z,24.36
2018-04-23T10:53:32.257Z,24.08
2018-04-23T10:55:59.732Z,24.03
2018-04-23T10:58:28.167Z,24.06
2018-04-23T11:00:55.614Z,24.46
2018-04-23T11:03:23.030Z,24.81
2018-04-23T11:05:50.456Z,25.03
2018-04-23T11:08:17.916Z,25.25
2018-04-23T11:10:45.352Z,25.45
2018-04-23T11:13:12.800Z,25.82
2018-04-23T11:15:40.258Z,25.95
2018-04-23T11:18:07.789Z,26.32
2018-04-23T11:20:35.307Z,26.36
2018-04-23T11:23:02.904Z,26.57
2018-04-23T11:25:30.500Z,26.73
2018-04-23T11:27:57.970Z,27.14
2018-04-23T11:30:25.458Z,26.95
2018-04-23T11:32:52.905Z,27.00
2018-04-23T11:35:20.346Z,27.07
2018-04-23T11:37:47.809Z,26.95
2018-04-23T11:40:15.355Z,27.20
2018-04-23T11:42:43.067Z,27.00
2018-04-23T11:45:10.584Z,26.51
2018-04-23T11:47:38.088Z,26.12
2018-04-23T11:50:05.595Z,24.88
2018-04-23T11:52:33.080Z,24.52
2018-04-23T11:55:00.618Z,24.94
2018-04-23T11:57:28.150Z,25.38
2018-04-23T11:59:55.601Z,25.76
2018-04-23T12:02:23.101Z,25.72
2018-04-23T12:04:50.471Z,26.05
2018-04-23T12:07:17.991Z,26.12
2018-04-23T12:09:45.435Z,26.41
2018-04-23T12:12:13.020Z,27.01
2018-04-23T12:14:40.478Z,27.36
2018-04-23T12:17:08.002Z,27.88
2018-04-23T12:19:35.424Z,28.52
2018-04-23T12:22:02.960Z,28.61
2018-04-23T12:24:30.430Z,28.98
2018-04-23T12:26:58.050Z,29.04
2018-04-23T12:29:25.543Z,28.87
2018-04-23T12:31:53.015Z,28.61
2018-04-23T12:34:20.446Z,28.40
2018-04-23T12:36:47.926Z,27.81
2018-04-23T12:39:15.438Z,27.04
2018-04-23T12:41:42.876Z,26.53
2018-04-23T12:44:10.371Z,26.68
2018-04-23T12:46:37.854Z,26.52
2018-04-23T12:49:05.355Z,26.17
2018-04-23T12:51:32.872Z,25.87
2018-04-23T12:54:00.328Z,25.05
2018-04-23T12:56:27.909Z,25.03
2018-04-23T12:58:55.346Z,25.35
2018-04-23T13:01:22.821Z,25.30
2018-04-23T13:03:50.251Z,25.63
2018-04-23T13:06:17.746Z,26.94
2018-04-23T13:08:45.700Z,27.79
2018-04-23T13:11:13.149Z,28.70
2018-04-23T13:13:40.579Z,28.92
2018-04-23T13:16:07.975Z,29.60
2018-04-23T13:18:35.396Z,30.13
2018-04-23T13:21:02.839Z,30.67
2018-04-23T13:23:30.327Z,31.92
2018-04-23T13:25:57.763Z,33.74
2018-04-23T13:28:25.389Z,34.21
2018-04-23T13:30:52.832Z,34.61
2018-04-23T13:33:20.327Z,35.16
2018-04-23T13:35:47.830Z,35.62
2018-04-23T13:38:15.279Z,35.52
2018-04-23T13:40:42.780Z,35.39
2018-04-23T13:43:10.302Z,35.51
2018-04-23T13:45:38.505Z,35.37
2018-04-23T13:48:05.939Z,35.58
2018-04-23T13:50:33.383Z,36.28
2018-04-23T13:53:00.884Z,37.14
2018-04-23T13:55:28.585Z,37.26
2018-04-23T13:57:56.082Z,37.04
2018-04-23T14:00:23.609Z,36.93
2018-04-23T14:02:51.118Z,36.73
2018-04-23T14:05:18.593Z,36.95
2018-04-23T14:07:46.143Z,37.16
2018-04-23T14:10:13.625Z,37.48
2018-04-23T14:12:41.162Z,37.88
2018-04-23T14:15:08.645Z,38.69
2018-04-23T14:17:36.170Z,39.02
2018-04-23T14:20:03.610Z,39.31
2018-04-23T14:22:31.043Z,39.49
2018-04-23T14:29:09.273Z,39.75
2018-04-23T14:31:36.804Z,39.77
2018-04-23T14:34:04.268Z,39.77
2018-04-23T14:36:31.725Z,39.57
2018-04-23T14:38:59.192Z,40.02
2018-04-23T14:41:26.616Z,40.83
2018-04-23T14:43:54.118Z,40.95
2018-04-23T14:46:21.566Z,41.11
2018-04-23T14:48:49.014Z,41.36
2018-04-23T14:51:16.574Z,41.36
2018-04-23T14:53:44.039Z,41.20
2018-04-23T14:56:11.757Z,40.85
2018-04-23T14:58:39.241Z,40.56
2018-04-23T15:01:06.714Z,40.51
2018-04-23T15:03:34.220Z,40.58
2018-04-23T15:06:01.617Z,40.91
2018-04-23T15:08:29.044Z,40.90
2018-04-23T15:10:56.528Z,40.82
2018-04-23T15:13:23.983Z,41.14
2018-04-23T15:15:51.439Z,41.26
2018-04-23T15:18:18.885Z,41.31
2018-04-23T15:20:46.380Z,41.05
2018-04-23T15:23:13.927Z,41.00
2018-04-23T15:25:41.570Z,40.81
2018-04-23T15:28:09.063Z,40.73
2018-04-23T15:30:36.557Z,40.63
2018-04-23T15:33:04.051Z,40.82
2018-04-23T15:35:31.524Z,41.18
2018-04-23T15:37:58.939Z,41.14
2018-04-23T15:40:26.471Z,40.54
2018-04-23T15:42:53.978Z,40.50
2018-04-23T15:45:21.437Z,40.53
2018-04-23T15:47:49.135Z,40.52
2018-04-23T15:50:16.599Z,40.00
2018-04-23T15:52:44.169Z,40.67
2018-04-23T15:55:11.695Z,40.59
2018-04-23T15:57:39.203Z,40.49
2018-04-23T16:00:06.636Z,40.30
2018-04-23T16:02:34.139Z,40.45
2018-04-23T16:05:01.647Z,40.19
2018-04-23T16:07:29.143Z,40.10
2018-04-23T16:09:56.685Z,40.30
2018-04-23T16:12:24.121Z,40.50
2018-04-23T16:14:51.555Z,40.69
2018-04-23T16:17:19.004Z,40.13
2018-04-23T16:19:46.473Z,39.34
2018-04-23T16:22:14.083Z,38.79
2018-04-23T16:24:41.525Z,38.76
2018-04-23T16:27:08.965Z,38.49
2018-04-23T16:29:36.491Z,38.70
2018-04-23T16:32:04.122Z,39.03
2018-04-23T16:34:31.548Z,39.20
2018-04-23T16:36:58.979Z,38.80
2018-04-23T16:39:26.543Z,38.21
2018-04-23T16:41:53.959Z,38.21
2018-04-23T16:44:27.165Z,38.33
2018-04-23T16:46:49.072Z,38.39
2018-04-23T16:49:16.561Z,38.52
2018-04-23T16:51:44.033Z,38.64
2018-04-23T16:54:11.446Z,38.38
2018-04-23T16:56:39.073Z,38.85
2018-04-23T16:59:06.563Z,39.07
2018-04-23T17:01:34.054Z,39.31
2018-04-23T17:04:01.479Z,39.89
2018-04-23T17:06:28.944Z,39.67
2018-04-23T17:08:56.376Z,40.20
2018-04-23T17:11:24.294Z,40.44
2018-04-23T17:13:52.042Z,40.71
2018-04-23T17:16:19.471Z,40.99
2018-04-23T17:18:46.890Z,41.18
2018-04-23T17:21:14.475Z,41.37
2018-04-23T17:23:41.959Z,41.41
2018-04-23T17:26:09.569Z,41.43
2018-04-23T17:28:37.071Z,42.04
2018-04-23T17:31:04.522Z,42.08
2018-04-23T17:33:31.989Z,42.07
2018-04-23T17:35:59.460Z,42.23
2018-04-23T17:38:26.884Z,42.22
2018-04-23T17:40:55.229Z,42.40
2018-04-23T17:43:22.675Z,42.55
2018-04-23T17:45:50.146Z,42.54
2018-04-23T17:48:17.552Z,42.81
2018-04-23T17:50:45.030Z,42.77
2018-04-23T17:53:12.590Z,42.90
2018-04-23T17:55:40.198Z,42.72
2018-04-23T17:58:07.993Z,43.52
2018-04-23T18:00:35.390Z,43.05
2018-04-23T18:03:02.881Z,42.86
2018-04-23T18:05:30.334Z,42.95
2018-04-23T18:07:58.354Z,43.13
2018-04-23T18:10:25.805Z,44.06
2018-04-23T18:12:53.313Z,44.80
2018-04-23T18:15:20.744Z,44.95
2018-04-23T18:17:48.268Z,44.69
2018-04-23T18:20:15.775Z,44.65
2018-04-23T18:22:43.217Z,44.40
2018-04-23T18:25:10.692Z,44.45
2018-04-23T18:27:38.375Z,44.30
2018-04-23T18:30:05.766Z,44.21
2018-04-23T18:32:33.231Z,44.34
2018-04-23T18:35:00.630Z,44.68
2018-04-23T18:37:28.126Z,44.96
2018-04-23T18:39:56.312Z,45.03
2018-04-23T18:42:23.761Z,45.36
2018-04-23T18:44:51.187Z,45.72
2018-04-23T18:47:18.829Z,46.15
2018-04-23T18:49:46.274Z,46.27
2018-04-23T18:52:13.957Z,46.19
2018-04-23T18:54:41.519Z,46.16
2018-04-23T18:57:09.668Z,46.10
2018-04-23T18:59:37.149Z,46.12
2018-04-23T19:02:04.881Z,46.19
2018-04-23T19:04:32.445Z,45.88
2018-04-23T19:06:59.992Z,45.41
2018-04-23T19:09:27.347Z,45.26
2018-04-23T19:11:54.749Z,45.25
2018-04-23T19:14:22.279Z,45.26
2018-04-23T19:16:49.731Z,45.56
2018-04-23T19:19:17.136Z,45.62
2018-04-23T19:21:44.612Z,45.72
2018-04-23T19:24:12.044Z,46.20
2018-04-23T19:26:39.483Z,46.88
2018-04-23T19:29:06.966Z,47.29
2018-04-23T19:31:34.615Z,47.44
2018-04-23T19:34:02.021Z,47.72
2018-04-23T19:36:29.481Z,47.77
2018-04-23T19:38:56.985Z,47.89
2018-04-23T19:41:24.384Z,47.82
2018-04-23T19:43:51.915Z,47.88
2018-04-23T19:46:19.482Z,47.81
2018-04-23T19:48:46.847Z,47.89
2018-04-23T19:51:14.367Z,48.28
2018-04-23T19:53:41.850Z,48.83
2018-04-23T19:56:09.276Z,49.31
2018-04-23T19:58:37.405Z,49.77
2018-04-23T20:01:04.854Z,50.06
2018-04-23T20:03:32.336Z,50.39
2018-04-23T20:05:59.776Z,50.82
2018-04-23T20:08:27.217Z,51.24
2018-04-23T20:10:54.755Z,51.49
2018-04-23T20:13:22.184Z,51.81
2018-04-23T20:15:49.635Z,51.96
2018-04-23T20:18:17.112Z,52.02
2018-04-23T20:20:45.103Z,52.18
2018-04-23T20:23:12.858Z,52.32
2018-04-23T20:25:40.279Z,53.31
2018-04-23T20:28:07.703Z,54.03
2018-04-23T20:30:35.949Z,54.34
2018-04-23T20:33:03.381Z,54.19
2018-04-23T20:35:30.839Z,54.24
2018-04-23T20:37:58.294Z,54.42
2018-04-23T20:40:25.813Z,54.71
2018-04-23T20:42:53.289Z,54.82
2018-04-23T20:45:20.760Z,55.25
2018-04-23T20:47:48.177Z,55.92
2018-04-23T20:50:15.635Z,56.58
2018-04-23T20:52:43.097Z,56.66
2018-04-23T20:55:10.510Z,57.18
2018-04-23T20:57:37.984Z,57.79
2018-04-23T21:00:05.443Z,58.64
2018-04-23T21:02:32.879Z,59.83
2018-04-23T21:05:00.357Z,60.35
2018-04-23T21:07:27.803Z,60.51
2018-04-23T21:09:55.233Z,60.51
2018-04-23T21:12:22.661Z,60.44
2018-04-23T21:14:50.111Z,60.49
2018-04-23T21:17:17.548Z,60.47
2018-04-23T21:19:45.012Z,60.61
2018-04-23T21:22:12.553Z,61.36
2018-04-23T21:24:39.989Z,61.36
2018-04-23T21:27:07.550Z,61.18
2018-04-23T21:29:35.020Z,61.22
2018-04-23T21:32:02.441Z,61.46
2018-04-23T21:34:29.897Z,62.08
2018-04-23T21:36:57.332Z,62.30
2018-04-23T21:39:24.921Z,62.32
2018-04-23T21:41:52.380Z,62.52
2018-04-23T21:44:19.845Z,62.73
2018-04-23T21:46:47.284Z,63.36
2018-04-23T21:49:14.700Z,63.42
2018-04-23T21:51:42.157Z,63.49
2018-04-23T21:54:09.646Z,63.48
2018-04-23T21:56:37.104Z,63.41
2018-04-23T21:59:04.525Z,63.25
2018-04-23T22:01:31.996Z,62.79
2018-04-23T22:03:59.427Z,62.79
2018-04-23T22:06:26.811Z,62.38
2018-04-23T22:08:54.312Z,62.30
2018-04-23T22:11:21.956Z,62.36
2018-04-23T22:13:49.396Z,62.35
2018-04-23T22:16:16.863Z,62.06
2018-04-23T22:18:44.251Z,61.48
2018-04-23T22:21:11.713Z,61.92
2018-04-23T22:23:39.217Z,62.75
2018-04-23T22:26:06.643Z,62.72
2018-04-23T22:28:34.089Z,62.11
2018-04-23T22:31:01.568Z,61.63
2018-04-23T22:33:29.025Z,61.31
2018-04-23T22:35:56.435Z,61.13
2018-04-23T22:38:23.869Z,61.09
2018-04-23T22:40:51.266Z,61.00
2018-04-23T22:43:18.758Z,61.12
2018-04-23T22:45:46.246Z,60.54
2018-04-23T22:48:13.728Z,60.34
2018-04-23T22:50:41.195Z,60.42
2018-04-23T22:53:08.619Z,60.34
2018-04-23T22:55:36.094Z,60.37
2018-04-23T22:58:03.515Z,60.27
2018-04-23T23:00:30.926Z,60.31
2018-04-23T23:02:58.326Z,60.15
2018-04-23T23:05:25.796Z,60.40
2018-04-23T23:07:53.278Z,60.66
2018-04-23T23:10:20.710Z,60.87
2018-04-23T23:12:48.100Z,60.51
2018-04-23T23:15:15.535Z,60.16
2018-04-23T23:17:42.972Z,59.94
2018-04-23T23:20:10.399Z,59.78
2018-04-23T23:22:38.033Z,59.83
2018-04-23T23:25:05.464Z,60.10
2018-04-23T23:27:32.991Z,59.96
2018-04-23T23:30:00.309Z,60.09
2018-04-23T23:32:27.743Z,60.50
2018-04-23T23:34:55.310Z,61.06
2018-04-23T23:37:22.715Z,60.97
2018-04-23T23:39:50.163Z,60.51
2018-04-23T23:42:17.607Z,60.34
2018-04-23T23:44:44.993Z,60.43
2018-04-23T23:47:12.455Z,60.70
2018-04-23T23:49:39.851Z,60.83
2018-04-23T23:52:07.313Z,60.95
2018-04-23T23:54:34.885Z,61.09
2018-04-23T23:57:02.321Z,61.15
2018-04-23T23:59:29.728Z,61.34
